Station: EBLB - 18/06/2024 17:49Z (il y a 9 minutes)
EBLB 181749Z AUTO 32007KT 9999 FEW010/// BKN029/// BKN083/// 16/15 Q1013 BLU
Vent du 320º - 7 kt
Visibilité > 10 km
Nuages épars à 1000 pieds - Ciel 75% couvert à 2900 pieds - Ciel 75% couvert à 8300 pieds
Température: +16ºC - Point de rosée: +15ºC - QNH: 1013 hPa
Code couleur militaire: BLU (conditions VMC)